Time;durP1;ratioP1;P1;durP2;ratioP2;P2;SDS_P1;SDS_P2;PMS_P1;PMS_P2;Temp;Humidity;BMP_temperature;BMP_pressure;BME280_temperature;BME280_humidity;BME280_pressure;Samples;Min_cycle;Max_cycle;Signal;HPM_P1;HPM_P2
2021/04/03 00:00:35;;;;;;;10.23;4.97;;;6.30;99.90;;;;;;5057862;28;20207;-84
2021/04/03 00:03:09;;;;;;;9.80;4.75;;;6.20;99.90;;;;;;5055459;28;20211;-84
2021/04/03 00:05:38;;;;;;;6.65;4.15;;;;;;;;;;5051717;28;20215;-84
2021/04/03 00:08:06;;;;;;;7.25;4.35;;;;;;;;;;5051801;28;20231;-84
2021/04/03 00:10:40;;;;;;;8.38;5.65;;;6.20;99.90;;;;;;5050845;28;20250;-84
2021/04/03 00:13:09;;;;;;;9.40;5.30;;;;;;;;;;5050477;28;20214;-85
2021/04/03 00:15:36;;;;;;;10.23;4.55;;;;;;;;;;5050732;28;20224;-85
2021/04/03 00:18:03;;;;;;;7.68;4.20;;;;;;;;;;5049664;28;20249;-85
2021/04/03 00:20:35;;;;;;;6.43;4.45;;;6.10;99.90;;;;;;5046651;28;20249;-86
2021/04/03 00:23:03;;;;;;;11.93;6.25;;;;;;;;;;5047842;28;20192;-84
2021/04/03 00:25:29;;;;;;;8.60;3.17;;;6.20;99.90;;;;;;5047954;28;20226;-85
2021/04/03 00:28:00;;;;;;;7.43;3.95;;;6.40;99.90;;;;;;5050341;28;20227;-84
2021/04/03 00:30:29;;;;;;;7.68;4.38;;;6.40;99.90;;;;;;5055695;28;20230;-84
2021/04/03 00:33:02;;;;;;;9.63;4.28;;;6.20;99.90;;;;;;5055238;28;20190;-86
2021/04/03 00:35:30;;;;;;;8.45;4.43;;;6.10;99.90;;;;;;5051534;28;20203;-84
2021/04/03 00:38:00;;;;;;;7.05;3.75;;;6.20;99.90;;;;;;5044073;28;20226;-84
2021/04/03 00:40:29;;;;;;;8.20;4.60;;;6.00;99.90;;;;;;5044496;28;20232;-85
2021/04/03 00:43:01;;;;;;;8.35;3.47;;;6.00;99.90;;;;;;5043986;28;20203;-85
2021/04/03 00:45:27;;;;;;;10.23;4.57;;;6.30;99.90;;;;;;5045719;28;20188;-84
2021/04/03 00:47:54;;;;;;;6.30;4.53;;;6.00;99.90;;;;;;5045109;28;20223;-85
2021/04/03 00:50:26;;;;;;;9.32;4.30;;;6.00;99.90;;;;;;5046090;28;20224;-84
2021/04/03 00:52:57;;;;;;;16.65;6.22;;;5.90;99.90;;;;;;5046329;28;20219;-85
2021/04/03 00:55:24;;;;;;;7.38;4.82;;;5.90;99.90;;;;;;5048428;28;20187;-85
2021/04/03 00:57:51;;;;;;;12.57;6.45;;;6.20;99.90;;;;;;5048407;28;20573;-85
2021/04/03 01:00:21;;;;;;;7.60;3.88;;;5.90;99.90;;;;;;5050785;28;20253;-85
2021/04/03 01:02:49;;;;;;;7.03;4.50;;;5.90;99.90;;;;;;5050153;28;20220;-85
2021/04/03 01:05:22;;;;;;;8.50;5.75;;;5.80;99.90;;;;;;5049087;28;20204;-85
2021/04/03 01:07:51;;;;;;;5.22;4.57;;;5.60;99.90;;;;;;5048676;28;20226;-85
2021/04/03 01:10:22;;;;;;;4.95;4.45;;;5.80;99.90;;;;;;5049182;28;20694;-86
2021/04/03 01:13:16;;;;;;;9.90;4.22;;;5.90;99.90;;;;;;5049406;28;20195;-85
2021/04/03 01:15:48;;;;;;;5.57;4.28;;;5.80;99.90;;;;;;5022325;28;20258;-84
2021/04/03 01:18:24;;;;;;;13.75;5.43;;;5.90;99.90;;;;;;5049588;28;20188;-85
2021/04/03 01:21:00;;;;;;;9.43;4.88;;;5.70;99.90;;;;;;5048117;28;20227;-86
2021/04/03 01:23:51;;;;;;;7.82;5.35;;;5.40;99.90;;;;;;5049816;28;20195;-84
2021/04/03 01:26:53;;;;;;;11.57;5.28;;;5.70;99.90;;;;;;5050674;28;20188;-85
2021/04/03 01:29:47;;;;;;;9.32;5.13;;;5.80;99.90;;;;;;5055443;28;20207;-85
2021/04/03 01:32:17;;;;;;;8.35;5.35;;;5.60;99.90;;;;;;5057740;28;20222;-84
2021/04/03 01:34:46;;;;;;;9.95;4.93;;;5.50;99.90;;;;;;5057152;28;20612;-84
2021/04/03 01:37:15;;;;;;;6.47;4.90;;;5.60;99.90;;;;;;5055234;28;20206;-84
2021/04/03 01:39:45;;;;;;;6.40;4.95;;;5.50;99.90;;;;;;5057461;28;20199;-84
2021/04/03 01:42:17;;;;;;;6.50;4.82;;;5.80;99.90;;;;;;5057231;28;20208;-85
2021/04/03 01:44:48;;;;;;;6.22;4.90;;;5.70;99.90;;;;;;5055096;28;20199;-85
2021/04/03 01:47:17;;;;;;;12.20;6.25;;;5.40;99.90;;;;;;5056874;28;20238;-84
2021/04/03 01:49:47;;;;;;;11.35;4.97;;;5.30;99.90;;;;;;5053534;28;20210;-84
2021/04/03 01:52:15;;;;;;;12.57;5.05;;;5.30;99.90;;;;;;5058627;28;20195;-84
2021/04/03 01:54:43;;;;;;;7.80;5.50;;;5.40;99.90;;;;;;5058143;28;20218;-84
2021/04/03 01:57:09;;;;;;;9.90;5.85;;;4.60;99.90;;;;;;5059181;28;20199;-84
2021/04/03 01:59:37;;;;;;;9.10;4.85;;;5.10;99.90;;;;;;5058469;28;20289;-84
2021/04/03 02:02:07;;;;;;;6.88;4.25;;;5.40;99.90;;;;;;5059516;28;20200;-85
2021/04/03 02:04:33;;;;;;;16.75;6.95;;;5.30;99.90;;;;;;5059577;28;20194;-83
2021/04/03 02:07:00;;;;;;;10.68;4.95;;;5.30;99.90;;;;;;5059808;28;20223;-83
2021/04/03 02:09:28;;;;;;;10.18;4.30;;;5.10;99.90;;;;;;5058890;28;20207;-85
2021/04/03 02:12:00;;;;;;;11.27;5.55;;;5.30;99.90;;;;;;5059072;28;20211;-83
2021/04/03 02:14:27;;;;;;;6.78;4.70;;;5.20;99.90;;;;;;5059462;28;20168;-83
2021/04/03 02:16:54;;;;;;;8.30;3.92;;;5.20;99.90;;;;;;5059505;28;20195;-84
2021/04/03 02:19:22;;;;;;;9.18;4.53;;;4.20;99.90;;;;;;5059235;28;20211;-84
2021/04/03 02:21:48;;;;;;;5.22;4.72;;;5.00;99.90;;;;;;5056786;28;20234;-84
2021/04/03 02:24:15;;;;;;;6.65;5.65;;;5.10;99.90;;;;;;5056238;28;20184;-84
2021/04/03 02:26:42;;;;;;;5.95;4.75;;;;;;;;;;5059664;28;20256;-84
2021/04/03 02:29:08;;;;;;;12.00;5.50;;;5.20;99.90;;;;;;5059466;28;20215;-84
2021/04/03 02:31:35;;;;;;;8.82;4.80;;;5.00;99.90;;;;;;5060173;28;20207;-84
2021/04/03 02:34:03;;;;;;;9.18;5.53;;;5.10;99.90;;;;;;5059906;28;20211;-84
2021/04/03 02:36:30;;;;;;;11.20;5.53;;;4.80;99.90;;;;;;5059557;28;20208;-83
2021/04/03 02:38:59;;;;;;;7.03;5.68;;;4.80;99.90;;;;;;5059754;28;20215;-84
2021/04/03 02:41:33;;;;;;;10.57;5.70;;;5.00;99.90;;;;;;5058690;28;20215;-84
2021/04/03 02:44:11;;;;;;;12.93;5.05;;;4.90;99.90;;;;;;5058744;28;20188;-84
2021/04/03 02:46:44;;;;;;;7.07;3.60;;;5.50;99.90;;;;;;5057212;28;20185;-85
2021/04/03 02:49:17;;;;;;;7.60;5.65;;;4.80;99.90;;;;;;5054003;28;20184;-84
2021/04/03 02:51:48;;;;;;;8.95;6.30;;;4.90;99.90;;;;;;5044763;28;20322;-85
2021/04/03 02:54:16;;;;;;;7.82;5.18;;;4.80;99.90;;;;;;5046426;28;20252;-84
2021/04/03 02:56:44;;;;;;;12.30;6.85;;;4.80;99.90;;;;;;5046590;28;20708;-85
2021/04/03 02:59:17;;;;;;;6.07;5.47;;;5.10;99.90;;;;;;5043356;28;20203;-84
2021/04/03 03:01:45;;;;;;;12.05;6.50;;;4.10;99.90;;;;;;5043793;28;20230;-85
2021/04/03 03:04:13;;;;;;;9.60;6.13;;;4.70;99.90;;;;;;5043746;28;20218;-84
2021/04/03 03:06:40;;;;;;;7.35;5.22;;;5.00;99.90;;;;;;5043412;28;20294;-85
2021/04/03 03:09:08;;;;;;;12.18;6.40;;;5.60;99.90;;;;;;5043651;28;20207;-84
2021/04/03 03:11:37;;;;;;;9.65;5.25;;;4.20;99.90;;;;;;5042692;28;20299;-84
2021/04/03 03:14:04;;;;;;;10.68;4.28;;;5.00;99.90;;;;;;5042464;28;20585;-84
2021/04/03 03:16:32;;;;;;;9.48;5.40;;;4.80;99.90;;;;;;5043807;28;20659;-84
2021/04/03 03:18:58;;;;;;;10.35;5.75;;;4.60;99.90;;;;;;5048263;28;20674;-83
2021/04/03 03:21:25;;;;;;;10.68;5.72;;;4.80;99.90;;;;;;5057127;28;20224;-84
2021/04/03 03:23:52;;;;;;;9.18;5.32;;;4.80;99.90;;;;;;5053521;28;20207;-84
2021/04/03 03:26:20;;;;;;;9.68;3.53;;;4.00;99.90;;;;;;5046350;28;20222;-84
2021/04/03 03:28:48;;;;;;;9.70;5.90;;;4.60;99.90;;;;;;5054401;28;20303;-84
2021/04/03 03:31:14;;;;;;;7.07;4.70;;;5.10;99.90;;;;;;5054434;28;20261;-84
2021/04/03 03:33:41;;;;;;;10.55;4.43;;;4.70;99.90;;;;;;5043710;28;20214;-84
2021/04/03 03:36:08;;;;;;;7.40;5.13;;;4.40;99.90;;;;;;5047099;28;20203;-84
2021/04/03 03:38:35;;;;;;;9.43;5.28;;;4.70;99.90;;;;;;5057049;28;20199;-84
2021/04/03 03:41:02;;;;;;;9.73;3.63;;;4.70;99.90;;;;;;5054899;28;20231;-85
2021/04/03 03:43:30;;;;;;;10.88;5.28;;;4.60;99.90;;;;;;5042516;28;20575;-85
2021/04/03 03:45:57;;;;;;;9.73;5.28;;;4.70;99.90;;;;;;5045661;28;20211;-84
2021/04/03 03:48:23;;;;;;;6.90;4.07;;;4.30;99.90;;;;;;5047540;28;20262;-84
2021/04/03 03:50:49;;;;;;;13.07;5.55;;;4.60;99.90;;;;;;5049504;28;20683;-84
2021/04/03 03:53:16;;;;;;;9.60;5.32;;;4.50;99.90;;;;;;5048191;28;20207;-84
2021/04/03 03:55:42;;;;;;;8.95;5.45;;;4.50;99.90;;;;;;5046605;28;20338;-84
2021/04/03 03:58:08;;;;;;;15.18;6.03;;;4.60;99.90;;;;;;5042957;28;20234;-84
2021/04/03 04:00:35;;;;;;;11.55;6.18;;;4.70;99.90;;;;;;5043105;28;20235;-84
2021/04/03 04:03:01;;;;;;;10.60;5.72;;;4.40;99.90;;;;;;5043552;28;20196;-85
2021/04/03 04:05:27;;;;;;;14.38;6.32;;;6.40;99.90;;;;;;5043677;28;20207;-84
2021/04/03 04:07:53;;;;;;;10.40;5.35;;;4.40;99.90;;;;;;5042919;28;20220;-84
2021/04/03 04:10:19;;;;;;;9.38;5.53;;;4.40;99.90;;;;;;5047158;28;20246;-84
2021/04/03 04:12:46;;;;;;;11.57;5.60;;;4.40;99.90;;;;;;5041737;28;20441;-84
2021/04/03 04:15:12;;;;;;;8.40;6.40;;;4.30;99.90;;;;;;5042025;28;20206;-84
2021/04/03 04:17:39;;;;;;;10.52;6.18;;;4.10;99.90;;;;;;5040777;28;20211;-84
2021/04/03 04:20:06;;;;;;;5.85;4.18;;;4.30;99.90;;;;;;5043241;28;20220;-84
2021/04/03 04:22:32;;;;;;;10.18;6.00;;;4.50;99.90;;;;;;5042324;28;20678;-84
2021/04/03 04:24:59;;;;;;;13.30;6.28;;;4.20;99.90;;;;;;5042140;28;20452;-84
2021/04/03 04:27:25;;;;;;;8.93;5.72;;;4.80;99.90;;;;;;5041309;28;20234;-84
2021/04/03 04:29:51;;;;;;;10.20;6.25;;;4.30;99.90;;;;;;5041635;28;20227;-84
2021/04/03 04:32:17;;;;;;;9.73;6.25;;;3.60;99.90;;;;;;5041179;28;20210;-84
2021/04/03 04:34:44;;;;;;;11.68;5.30;;;4.30;99.90;;;;;;5042088;28;20199;-84
2021/04/03 04:37:10;;;;;;;11.60;5.15;;;4.70;99.90;;;;;;5042949;28;20267;-84
2021/04/03 04:39:37;;;;;;;11.65;5.45;;;;;;;;;;5045336;28;20199;-84
2021/04/03 04:42:04;;;;;;;8.55;5.60;;;4.20;99.90;;;;;;5050397;28;20204;-83
2021/04/03 04:44:30;;;;;;;10.60;6.03;;;4.50;99.90;;;;;;5050557;28;20287;-86
2021/04/03 04:46:57;;;;;;;10.30;6.45;;;4.20;99.90;;;;;;5048534;28;20228;-85
2021/04/03 04:49:23;;;;;;;11.68;5.63;;;4.50;99.90;;;;;;5046658;28;20581;-84
2021/04/03 04:51:50;;;;;;;9.35;6.63;;;4.30;99.90;;;;;;5047853;28;20234;-84
2021/04/03 04:54:16;;;;;;;9.20;5.57;;;3.60;99.90;;;;;;5050598;28;20223;-84
2021/04/03 04:56:42;;;;;;;7.95;5.15;;;4.30;99.90;;;;;;5051528;28;20203;-84
2021/04/03 04:59:08;;;;;;;9.20;6.22;;;4.20;99.90;;;;;;5053061;28;20215;-84
2021/04/03 05:01:35;;;;;;;12.57;5.55;;;4.40;99.90;;;;;;5051952;28;20223;-83
2021/04/03 05:04:01;;;;;;;6.75;4.75;;;4.30;99.90;;;;;;5051700;28;20234;-84
2021/04/03 05:06:27;;;;;;;7.45;5.10;;;4.40;99.90;;;;;;5052278;28;20203;-83
2021/04/03 05:08:55;;;;;;;8.07;4.82;;;4.40;99.90;;;;;;5045325;28;20224;-84
2021/04/03 05:11:21;;;;;;;9.65;5.38;;;4.50;99.90;;;;;;5059090;22;20223;-85
2021/04/03 05:13:47;;;;;;;10.20;5.90;;;4.20;99.90;;;;;;5043441;28;20203;-85
2021/04/03 05:16:14;;;;;;;7.65;5.05;;;5.40;99.90;;;;;;5042496;28;20656;-85
2021/04/03 05:18:40;;;;;;;8.55;3.53;;;4.30;99.90;;;;;;5044463;28;20204;-85
2021/04/03 05:21:06;;;;;;;9.13;5.55;;;4.40;99.90;;;;;;5043973;28;20235;-85
2021/04/03 05:23:32;;;;;;;6.25;4.40;;;5.10;99.90;;;;;;5046225;28;20682;-85
2021/04/03 05:26:01;;;;;;;11.00;7.18;;;4.10;99.90;;;;;;5057003;28;20184;-85
2021/04/03 05:28:27;;;;;;;11.38;6.65;;;4.50;99.90;;;;;;5055848;28;20437;-85
2021/04/03 05:30:53;;;;;;;6.47;5.22;;;4.40;99.90;;;;;;5055364;28;20227;-86
2021/04/03 05:33:20;;;;;;;8.75;6.10;;;4.80;99.90;;;;;;5056544;28;20187;-85
2021/04/03 05:35:46;;;;;;;8.85;5.95;;;4.20;99.90;;;;;;5058416;28;20184;-80
2021/04/03 05:38:12;;;;;;;12.77;6.88;;;4.30;99.90;;;;;;5058230;28;20200;-81
2021/04/03 05:40:38;;;;;;;9.75;5.72;;;4.30;99.90;;;;;;5057838;28;20219;-84
2021/04/03 05:43:05;;;;;;;11.60;6.50;;;4.50;99.90;;;;;;5058676;28;20459;-83
2021/04/03 05:45:36;;;;;;;9.90;5.57;;;4.40;99.90;;;;;;5051046;28;20445;-85
2021/04/03 05:48:04;;;;;;;9.70;6.10;;;4.20;99.90;;;;;;5043011;28;20445;-85
2021/04/03 05:50:31;;;;;;;11.68;7.22;;;4.60;99.90;;;;;;5044060;28;20231;-84
2021/04/03 05:52:59;;;;;;;8.65;6.00;;;4.60;99.90;;;;;;5044084;28;20307;-84
2021/04/03 05:55:26;;;;;;;10.95;6.35;;;4.60;99.90;;;;;;5043205;28;20203;-85
2021/04/03 05:57:52;;;;;;;4.55;3.40;;;4.70;99.90;;;;;;5042958;28;20200;-84
2021/04/03 06:00:20;;;;;;;9.27;3.42;;;4.10;99.90;;;;;;5043964;28;20219;-85
2021/04/03 06:02:46;;;;;;;13.93;5.35;;;4.20;99.90;;;;;;5042973;28;20199;-85
2021/04/03 06:05:13;;;;;;;11.13;5.07;;;4.10;99.90;;;;;;5043171;28;20552;-85
2021/04/03 06:07:40;;;;;;;7.28;5.18;;;4.70;99.90;;;;;;5042083;28;20223;-84
2021/04/03 06:10:07;;;;;;;7.10;4.75;;;4.80;99.90;;;;;;5044619;28;20220;-85
2021/04/03 06:12:44;;;;;;;10.15;4.90;;;4.90;99.90;;;;;;5045379;28;20215;-85
2021/04/03 06:15:14;;;;;;;8.82;4.13;;;4.90;99.90;;;;;;5046144;28;20195;-85
2021/04/03 06:17:41;;;;;;;9.45;4.78;;;4.90;99.90;;;;;;5049126;28;20199;-85
2021/04/03 06:20:08;;;;;;;9.75;3.78;;;4.90;99.90;;;;;;5057332;28;20214;-85
2021/04/03 06:22:45;;;;;;;8.80;3.78;;;5.10;99.90;;;;;;5045789;28;20215;-86
2021/04/03 06:25:12;;;;;;;4.63;2.95;;;5.30;99.90;;;;;;5043503;28;20188;-87
2021/04/03 06:27:41;;;;;;;4.50;3.00;;;5.90;99.90;;;;;;5046423;28;20227;-85
2021/04/03 06:30:15;;;;;;;3.13;2.90;;;4.80;99.90;;;;;;5042984;28;20222;-84
2021/04/03 06:32:46;;;;;;;3.53;2.65;;;5.20;99.90;;;;;;5049968;28;20191;-83
2021/04/03 06:35:12;;;;;;;2.78;2.13;;;5.30;99.90;;;;;;5055387;28;20190;-85
2021/04/03 06:37:39;;;;;;;4.43;3.17;;;5.30;99.90;;;;;;5043031;28;20667;-86
2021/04/03 06:40:07;;;;;;;5.22;3.90;;;5.50;99.90;;;;;;5042424;28;20227;-86
2021/04/03 06:42:42;;;;;;;5.50;2.75;;;5.40;99.90;;;;;;5042025;28;20207;-86
2021/04/03 06:45:26;;;;;;;4.65;2.97;;;5.30;99.90;;;;;;5041355;28;20203;-86
2021/04/03 06:47:55;;;;;;;7.60;2.55;;;5.50;99.90;;;;;;5041971;28;20207;-86
2021/04/03 06:50:23;;;;;;;7.97;3.10;;;5.40;99.90;;;;;;5041994;28;20223;-86
2021/04/03 06:52:52;;;;;;;5.03;3.08;;;5.80;99.90;;;;;;5044952;28;20223;-87
2021/04/03 06:55:23;;;;;;;1.75;1.65;;;5.60;99.90;;;;;;5042330;28;20200;-84
2021/04/03 06:57:51;;;;;;;7.07;3.67;;;5.70;99.90;;;;;;5042444;28;20214;-85
2021/04/03 07:00:19;;;;;;;4.80;2.17;;;6.10;99.90;;;;;;5043152;28;20224;-86
2021/04/03 07:02:54;;;;;;;3.75;2.90;;;5.70;99.90;;;;;;5042774;28;20204;-86
2021/04/03 07:05:22;;;;;;;5.18;3.30;;;5.60;99.90;;;;;;5041895;28;20218;-86
2021/04/03 07:07:49;;;;;;;6.25;2.35;;;4.80;99.90;;;;;;5045862;28;20282;-86
2021/04/03 07:10:17;;;;;;;4.20;2.30;;;5.80;99.90;;;;;;5054273;28;20273;-83
2021/04/03 07:12:44;;;;;;;3.35;2.35;;;5.50;99.90;;;;;;5043266;28;20192;-85
2021/04/03 07:15:12;;;;;;;3.60;2.67;;;5.80;99.90;;;;;;5041470;28;20207;-85
2021/04/03 07:17:41;;;;;;;2.63;2.42;;;6.40;99.90;;;;;;5041355;28;20210;-85
2021/04/03 07:20:11;;;;;;;8.70;3.50;;;6.00;99.90;;;;;;5049702;28;20231;-84
2021/04/03 07:22:38;;;;;;;7.72;2.30;;;6.10;99.90;;;;;;5041806;28;20200;-84
2021/04/03 07:25:07;;;;;;;3.50;2.58;;;6.00;99.90;;;;;;5041281;28;20238;-85
2021/04/03 07:27:36;;;;;;;2.30;1.98;;;6.40;99.90;;;;;;5039843;28;20259;-84
2021/04/03 07:30:03;;;;;;;6.50;2.30;;;6.60;99.90;;;;;;5040904;28;20663;-84
2021/04/03 07:32:37;;;;;;;1.77;1.67;;;6.50;99.90;;;;;;5040545;28;20262;-83
2021/04/03 07:35:16;;;;;;;3.10;1.80;;;6.60;99.90;;;;;;5041369;28;20246;-85
2021/04/03 07:37:42;;;;;;;3.83;1.55;;;6.50;99.90;;;;;;5054784;28;20183;-85
2021/04/03 07:40:13;;;;;;;3.45;2.45;;;6.40;99.90;;;;;;5057062;28;20227;-83
2021/04/03 07:42:40;;;;;;;4.72;2.25;;;6.70;99.90;;;;;;5057193;28;20191;-82
2021/04/03 07:45:44;;;;;;;2.28;2.05;;;6.30;99.90;;;;;;5057185;28;20192;-84
2021/04/03 07:48:15;;;;;;;2.08;1.50;;;6.70;99.90;;;;;;5058447;28;20223;-85
2021/04/03 07:50:54;;;;;;;1.58;1.48;;;6.90;99.90;;;;;;5052130;28;20227;-85
2021/04/03 07:53:34;;;;;;;16.70;7.50;;;6.80;99.90;;;;;;5054767;28;20263;-86
2021/04/03 07:56:01;;;;;;;7.78;4.47;;;7.00;99.90;;;;;;5055270;28;20200;-86
2021/04/03 07:58:29;;;;;;;1.80;1.40;;;6.80;99.90;;;;;;5056271;28;20204;-85
2021/04/03 08:00:56;;;;;;;2.85;2.20;;;7.10;99.90;;;;;;5056408;28;20257;-86
2021/04/03 08:03:24;;;;;;;2.80;2.60;;;6.00;99.90;;;;;;5056245;28;20187;-87
2021/04/03 08:05:59;;;;;;;3.75;2.35;;;7.90;99.90;;;;;;5053800;28;20207;-87
2021/04/03 08:08:26;;;;;;;2.20;1.85;;;6.40;99.90;;;;;;5052173;28;20204;-87
2021/04/03 08:11:05;;;;;;;2.00;1.90;;;7.10;99.90;;;;;;5049182;28;20330;-87
2021/04/03 08:13:32;;;;;;;3.95;1.70;;;7.40;99.90;;;;;;5048749;28;20222;-88
2021/04/03 08:16:01;;;;;;;1.48;1.38;;;6.20;99.90;;;;;;5045627;28;20218;-86
2021/04/03 08:18:31;;;;;;;2.25;1.45;;;8.10;99.90;;;;;;5042498;28;20204;-85
2021/04/03 08:21:00;;;;;;;3.17;1.50;;;7.90;99.90;;;;;;5055199;28;20231;-86
2021/04/03 08:23:34;;;;;;;3.08;1.30;;;7.60;99.90;;;;;;5054869;28;20207;-86
2021/04/03 08:26:01;;;;;;;1.50;1.40;;;7.60;99.90;;;;;;5044047;28;20203;-88
2021/04/03 08:28:28;;;;;;;2.50;1.20;;;7.70;99.90;;;;;;5049982;28;20226;-87
2021/04/03 08:30:55;;;;;;;7.63;1.45;;;7.80;99.90;;;;;;5049263;28;20223;-87
2021/04/03 08:33:21;;;;;;;2.25;1.63;;;8.60;99.90;;;;;;5053649;28;20204;-88
2021/04/03 08:35:49;;;;;;;1.98;1.15;;;7.90;99.90;;;;;;5052436;28;20208;-88
2021/04/03 08:38:36;;;;;;;3.20;1.38;;;7.60;99.90;;;;;;5045208;28;20361;-86
2021/04/03 08:41:02;;;;;;;1.33;1.13;;;8.30;99.90;;;;;;5045052;28;20223;-86
2021/04/03 08:43:29;;;;;;;1.30;1.20;;;7.80;99.90;;;;;;5042161;28;20233;-87
2021/04/03 08:46:04;;;;;;;1.35;1.23;;;7.80;99.90;;;;;;5041535;28;20242;-86
2021/04/03 08:48:34;;;;;;;4.25;2.78;;;7.50;99.90;;;;;;5040471;28;20238;-87
2021/04/03 08:51:02;;;;;;;2.25;1.02;;;7.80;99.90;;;;;;5039802;28;20227;-87
2021/04/03 08:53:40;;;;;;;1.50;1.20;;;8.10;99.90;;;;;;5042155;28;20210;-88
2021/04/03 08:56:07;;;;;;;4.32;1.30;;;8.00;99.90;;;;;;5044778;28;20171;-87
2021/04/03 08:58:34;;;;;;;5.60;1.58;;;8.10;99.90;;;;;;5054167;28;20207;-86
2021/04/03 09:01:00;;;;;;;3.08;1.55;;;7.70;99.90;;;;;;5049076;28;20227;-87
2021/04/03 09:03:27;;;;;;;1.98;1.30;;;8.00;99.90;;;;;;5053710;28;20192;-88
2021/04/03 09:05:53;;;;;;;2.03;1.35;;;7.90;99.90;;;;;;5055710;28;20204;-86
2021/04/03 09:08:21;;;;;;;1.20;1.13;;;7.50;99.90;;;;;;5050487;28;20726;-87
2021/04/03 09:10:54;;;;;;;4.88;1.92;;;7.90;99.90;;;;;;5043468;28;20737;-87
2021/04/03 09:13:20;;;;;;;2.67;1.27;;;6.60;99.90;;;;;;5042489;28;20192;-88
2021/04/03 09:15:47;;;;;;;5.47;1.50;;;7.80;99.90;;;;;;5042787;28;20214;-87
2021/04/03 09:18:14;;;;;;;9.27;2.45;;;7.80;99.90;;;;;;5042406;28;20199;-87
2021/04/03 09:20:47;;;;;;;1.58;1.48;;;8.10;99.90;;;;;;5043834;28;20224;-88
2021/04/03 09:23:14;;;;;;;3.22;1.30;;;7.70;99.90;;;;;;5051023;28;20194;-85
2021/04/03 09:25:40;;;;;;;4.03;1.25;;;8.10;99.90;;;;;;5045703;28;20207;-89
2021/04/03 09:28:10;;;;;;;3.28;1.33;;;8.60;99.90;;;;;;5043951;28;20215;-88
2021/04/03 09:30:38;;;;;;;3.45;1.30;;;8.40;99.90;;;;;;5046373;28;20585;-87
2021/04/03 09:33:16;;;;;;;2.53;1.27;;;8.20;99.90;;;;;;5060366;28;20199;-86
2021/04/03 09:35:42;;;;;;;2.00;1.15;;;;;;;;;;5050348;28;20218;-85
2021/04/03 09:38:09;;;;;;;1.77;1.67;;;8.20;99.90;;;;;;5045481;28;20195;-85
2021/04/03 09:40:36;;;;;;;1.55;1.45;;;7.70;99.90;;;;;;5045269;28;20227;-85
2021/04/03 09:43:03;;;;;;;1.70;1.05;;;8.10;99.90;;;;;;5051110;28;20211;-87
2021/04/03 09:45:30;;;;;;;5.45;1.30;;;7.90;99.90;;;;;;5043776;28;20642;-87
2021/04/03 09:47:59;;;;;;;1.50;1.38;;;7.70;99.90;;;;;;5044481;28;20223;-87
2021/04/03 09:50:32;;;;;;;1.33;1.00;;;6.90;99.90;;;;;;5048782;28;20639;-87
2021/04/03 09:53:05;;;;;;;1.05;0.95;;;8.40;99.90;;;;;;5045781;28;20199;-87
2021/04/03 09:55:33;;;;;;;2.00;1.13;;;8.50;99.90;;;;;;5051631;28;20184;-87
2021/04/03 09:57:59;;;;;;;1.55;1.42;;;;;;;;;;5060137;28;20183;-85
2021/04/03 10:00:28;;;;;;;3.30;1.20;;;8.00;99.90;;;;;;5052322;28;20285;-87
2021/04/03 10:02:56;;;;;;;1.42;1.15;;;;;;;;;;5053540;28;20218;-86
2021/04/03 10:05:22;;;;;;;1.55;1.27;;;7.70;99.90;;;;;;5055224;28;20283;-85
2021/04/03 10:07:48;;;;;;;2.25;1.00;;;7.60;99.90;;;;;;5058903;28;20227;-87
2021/04/03 10:10:16;;;;;;;1.58;1.13;;;8.10;99.90;;;;;;5060498;28;20235;-86
2021/04/03 10:12:42;;;;;;;2.50;1.23;;;8.20;99.90;;;;;;5060860;28;20227;-85
2021/04/03 10:15:09;;;;;;;4.30;1.65;;;8.30;99.90;;;;;;5060677;28;20188;-87
2021/04/03 10:17:35;;;;;;;1.40;1.30;;;8.30;99.90;;;;;;5060608;28;20207;-85
2021/04/03 10:20:02;;;;;;;2.42;1.55;;;;;;;;;;5060505;28;20183;-83
2021/04/03 10:22:29;;;;;;;1.53;1.37;;;8.20;99.90;;;;;;5059405;28;20190;-86
2021/04/03 10:24:55;;;;;;;1.02;1.00;;;8.40;99.90;;;;;;5052211;28;20553;-87
2021/04/03 10:27:23;;;;;;;7.43;1.40;;;8.40;99.90;;;;;;5048590;28;20212;-87
2021/04/03 10:29:49;;;;;;;2.03;1.30;;;;;;;;;;5044979;28;20218;-86
2021/04/03 10:32:16;;;;;;;1.58;1.20;;;8.10;99.90;;;;;;5045954;28;20204;-87
2021/04/03 10:34:42;;;;;;;3.20;1.40;;;8.30;99.90;;;;;;5042101;28;20444;-87
2021/04/03 10:37:09;;;;;;;2.20;1.75;;;8.20;99.90;;;;;;5043091;28;20211;-87
2021/04/03 10:39:35;;;;;;;1.20;1.10;;;8.10;99.90;;;;;;5042790;28;20214;-86
2021/04/03 10:42:01;;;;;;;1.05;0.95;;;8.40;99.90;;;;;;5042152;28;20710;-87
2021/04/03 10:44:28;;;;;;;2.55;1.40;;;8.60;99.90;;;;;;5041914;28;20289;-88
2021/04/03 10:46:54;;;;;;;2.73;1.73;;;8.70;99.90;;;;;;5041492;28;20222;-87
2021/04/03 10:49:21;;;;;;;1.27;1.05;;;9.40;99.90;;;;;;5042579;28;20482;-87
2021/04/03 10:51:47;;;;;;;1.67;1.10;;;;;;;;;;5041697;28;20259;-87
2021/04/03 10:54:17;;;;;;;2.50;1.40;;;8.90;99.90;;;;;;5040617;28;21000;-86
2021/04/03 10:56:43;;;;;;;2.10;1.10;;;8.90;99.90;;;;;;5041206;28;20508;-86
2021/04/03 10:59:09;;;;;;;10.18;1.45;;;9.00;99.90;;;;;;5047980;28;20454;-88
2021/04/03 11:01:37;;;;;;;0.70;0.70;;;8.60;99.90;;;;;;5050053;28;20239;-86
2021/04/03 11:04:04;;;;;;;1.77;0.90;;;8.40;99.90;;;;;;5050196;28;20203;-87
2021/04/03 11:06:30;;;;;;;1.25;1.20;;;;;;;;;;5049107;28;20203;-85
2021/04/03 11:17:51;;;;;;;1.50;1.25;;;9.00;99.60;;;;;;5512719;23;20227;-90
2021/04/03 11:57:09;;;;;;;1.10;1.00;;;8.50;99.90;;;;;;3103022;26;20216;-92
2021/04/03 12:00:02;;;;;;;2.55;1.35;;;;;;;;;;5030144;28;20295;-90
2021/04/03 12:03:04;;;;;;;;;;;;;;;;;;;;;
2021/04/03 12:32:38;;;;;;;1.00;1.00;;;;;;;;;;5022765;28;20495;-87
2021/04/03 12:35:05;;;;;;;0.80;0.80;;;;;;;;;;5026273;28;20471;-84
2021/04/03 12:37:35;;;;;;;0.90;0.80;;;;;;;;;;5030367;28;20481;-84
2021/04/03 12:40:04;;;;;;;1.77;1.37;;;;;;;;;;5029161;28;20459;-84
2021/04/03 12:42:31;;;;;;;1.17;0.70;;;9.00;95.80;;;;;;5034169;28;20471;-84
2021/04/03 12:44:57;;;;;;;0.70;0.70;;;9.50;99.90;;;;;;5034648;28;20839;-85
2021/04/03 12:47:26;;;;;;;0.83;0.80;;;9.60;85.80;;;;;;5093305;22;21012;-88
2021/04/03 12:49:57;;;;;;;1.40;1.17;;;;;;;;;;5068833;28;20429;-87
2021/04/03 12:52:26;;;;;;;1.65;1.13;;;;;;;;;;5066349;28;20211;-88
2021/04/03 12:54:52;;;;;;;0.93;0.93;;;;;;;;;;5069798;28;20214;-89
2021/04/03 12:57:23;;;;;;;1.45;0.93;;;;;;;;;;5071707;28;20257;-87
2021/04/03 12:59:53;;;;;;;1.48;0.82;;;;;;;;;;5071241;28;20194;-87
2021/04/03 13:02:19;;;;;;;2.85;2.05;;;;;;;;;;5079223;28;20198;-87
2021/04/03 13:04:49;;;;;;;1.25;1.00;;;;;;;;;;5072194;28;20210;-89
2021/04/03 13:07:16;;;;;;;0.80;0.80;;;9.10;93.60;;;;;;5069242;28;20214;-87
2021/04/03 13:09:45;;;;;;;1.00;0.90;;;9.30;92.20;;;;;;5070945;28;20227;-89
2021/04/03 13:12:16;;;;;;;3.15;1.17;;;9.40;92.30;;;;;;5071948;28;20203;-87
2021/04/03 13:14:43;;;;;;;1.20;1.00;;;;;;;;;;5070688;28;20289;-87
2021/04/03 13:17:09;;;;;;;1.27;1.15;;;9.70;92.40;;;;;;5074647;28;21037;-87
2021/04/03 13:19:35;;;;;;;1.07;0.97;;;9.30;94.20;;;;;;5079295;28;20226;-85
2021/04/03 13:22:03;;;;;;;1.70;0.77;;;9.10;99.90;;;;;;5082446;28;20416;-89
2021/04/03 13:24:37;;;;;;;1.48;0.95;;;9.00;93.90;;;;;;5076490;28;20493;-88
2021/04/03 13:27:06;;;;;;;1.83;1.00;;;8.80;92.60;;;;;;5078090;28;20223;-88
2021/04/03 13:29:57;;;;;;;1.10;1.00;;;8.80;92.80;;;;;;5082382;28;20226;-90
2021/04/03 13:32:24;;;;;;;1.87;1.23;;;;;;;;;;5084421;28;20231;-86
2021/04/03 13:34:52;;;;;;;0.80;0.80;;;9.00;92.90;;;;;;5081692;28;20441;-88
2021/04/03 13:37:18;;;;;;;2.55;1.45;;;;;;;;;;5078831;28;20225;-87
2021/04/03 13:39:45;;;;;;;2.17;1.23;;;9.30;92.30;;;;;;5077280;28;20199;-88
2021/04/03 13:42:14;;;;;;;3.03;1.20;;;9.40;92.10;;;;;;5078461;28;20445;-86
2021/04/03 13:44:40;;;;;;;1.13;1.00;;;10.60;92.70;;;;;;5078309;28;20456;-88
2021/04/03 13:47:07;;;;;;;2.03;1.00;;;9.30;91.50;;;;;;5077101;28;20300;-85
2021/04/03 13:49:33;;;;;;;2.03;1.40;;;9.40;90.40;;;;;;5075801;28;20856;-86
2021/04/03 13:52:00;;;;;;;5.40;1.17;;;9.40;87.80;;;;;;5078936;28;20425;-86
2021/04/03 13:54:26;;;;;;;0.80;0.70;;;;;;;;;;5079095;28;20502;-86
2021/04/03 13:56:53;;;;;;;2.10;0.90;;;9.10;87.50;;;;;;5083090;28;20453;-85
2021/04/03 13:59:20;;;;;;;0.97;0.90;;;9.30;99.90;;;;;;5084339;28;20430;-85
2021/04/03 14:01:46;;;;;;;2.07;1.13;;;9.20;85.10;;;;;;5084630;28;20467;-83
2021/04/03 14:04:13;;;;;;;1.40;1.10;;;9.30;85.00;;;;;;5082635;28;20429;-86
2021/04/03 14:06:39;;;;;;;0.73;0.70;;;9.20;99.90;;;;;;5078800;28;20465;-86
2021/04/03 14:09:06;;;;;;;1.27;1.10;;;9.50;87.40;;;;;;5079173;28;20484;-87
2021/04/03 14:11:32;;;;;;;1.27;1.00;;;9.10;86.50;;;;;;5079762;28;20426;-85
2021/04/03 14:13:59;;;;;;;1.03;0.97;;;9.10;85.50;;;;;;5076193;28;20453;-85
2021/04/03 14:16:29;;;;;;;3.33;1.47;;;9.20;99.90;;;;;;5075095;28;20461;-85
2021/04/03 14:18:55;;;;;;;5.17;1.93;;;9.30;82.70;;;;;;5078122;28;20450;-84
2021/04/03 14:21:21;;;;;;;3.00;0.83;;;9.50;85.20;;;;;;5079555;28;20445;-84
2021/04/03 14:23:48;;;;;;;1.47;1.33;;;9.60;82.30;;;;;;5079192;28;20441;-85
2021/04/03 14:26:14;;;;;;;1.30;1.20;;;8.80;80.00;;;;;;5078619;28;20461;-85